sensor_id;sensor_type;location;lat;lon;timestamp;pressure;altitude;pressure_sealevel;temperature;humidity
34979;BME280;21185;50.978;13.720;2024-01-15T00:01:59;96391.69;;;1.83;73.37
34979;BME280;21185;50.978;13.720;2024-01-15T00:07:02;96389.13;;;1.83;73.34
34979;BME280;21185;50.978;13.720;2024-01-15T00:12:05;96377.63;;;1.79;73.69
34979;BME280;21185;50.978;13.720;2024-01-15T00:17:07;96380.47;;;1.76;74.08
34979;BME280;21185;50.978;13.720;2024-01-15T00:22:09;96389.91;;;1.76;74.22
34979;BME280;21185;50.978;13.720;2024-01-15T00:27:11;96373.75;;;1.75;74.13
34979;BME280;21185;50.978;13.720;2024-01-15T00:32:14;96382.69;;;1.71;74.35
34979;BME280;21185;50.978;13.720;2024-01-15T00:37:16;96370.06;;;1.70;74.42
34979;BME280;21185;50.978;13.720;2024-01-15T00:42:18;96375.03;;;1.71;74.35
34979;BME280;21185;50.978;13.720;2024-01-15T00:47:20;96369.25;;;1.69;74.34
34979;BME280;21185;50.978;13.720;2024-01-15T00:52:22;96357.44;;;1.68;74.53
34979;BME280;21185;50.978;13.720;2024-01-15T00:57:24;96367.66;;;1.68;74.63
34979;BME280;21185;50.978;13.720;2024-01-15T01:02:26;96365.75;;;1.70;74.38
34979;BME280;21185;50.978;13.720;2024-01-15T01:07:28;96358.88;;;1.71;74.17
34979;BME280;21185;50.978;13.720;2024-01-15T01:12:30;96351.22;;;1.71;74.31
34979;BME280;21185;50.978;13.720;2024-01-15T01:17:32;96336.19;;;1.68;74.16
34979;BME280;21185;50.978;13.720;2024-01-15T01:22:35;96333.78;;;1.66;74.25
34979;BME280;21185;50.978;13.720;2024-01-15T01:27:37;96319.53;;;1.63;74.13
34979;BME280;21185;50.978;13.720;2024-01-15T01:32:39;96329.13;;;1.61;73.77
34979;BME280;21185;50.978;13.720;2024-01-15T01:37:41;96322.41;;;1.60;73.60
34979;BME280;21185;50.978;13.720;2024-01-15T01:42:43;96323.06;;;1.62;73.82
34979;BME280;21185;50.978;13.720;2024-01-15T01:47:45;96311.38;;;1.60;73.38
34979;BME280;21185;50.978;13.720;2024-01-15T01:52:48;96298.91;;;1.57;73.27
34979;BME280;21185;50.978;13.720;2024-01-15T01:57:51;96298.91;;;1.57;73.39
34979;BME280;21185;50.978;13.720;2024-01-15T02:02:53;96324.31;;;1.58;73.15
34979;BME280;21185;50.978;13.720;2024-01-15T02:07:55;96304.50;;;1.60;72.75
34979;BME280;21185;50.978;13.720;2024-01-15T02:12:57;96283.25;;;1.60;72.90
34979;BME280;21185;50.978;13.720;2024-01-15T02:18:02;96293.50;;;1.60;72.67
34979;BME280;21185;50.978;13.720;2024-01-15T02:28:15;96305.63;;;1.58;72.25
34979;BME280;21185;50.978;13.720;2024-01-15T02:33:18;96277.81;;;1.55;72.13
34979;BME280;21185;50.978;13.720;2024-01-15T02:38:20;96266.94;;;1.53;72.12
34979;BME280;21185;50.978;13.720;2024-01-15T02:43:22;96275.88;;;1.49;71.90
34979;BME280;21185;50.978;13.720;2024-01-15T02:48:24;96276.97;;;1.46;71.94
34979;BME280;21185;50.978;13.720;2024-01-15T02:53:26;96272.81;;;1.45;71.67
34979;BME280;21185;50.978;13.720;2024-01-15T02:58:28;96271.22;;;1.44;71.59
34979;BME280;21185;50.978;13.720;2024-01-15T03:03:30;96278.09;;;1.44;71.92
34979;BME280;21185;50.978;13.720;2024-01-15T03:08:35;96254.59;;;1.40;72.19
34979;BME280;21185;50.978;13.720;2024-01-15T03:13:37;96248.03;;;1.38;71.86
34979;BME280;21185;50.978;13.720;2024-01-15T03:18:39;96252.50;;;1.36;71.74
34979;BME280;21185;50.978;13.720;2024-01-15T03:23:41;96246.59;;;1.35;72.00
34979;BME280;21185;50.978;13.720;2024-01-15T03:28:43;96248.50;;;1.33;71.78
34979;BME280;21185;50.978;13.720;2024-01-15T03:33:45;96246.09;;;1.32;71.67
34979;BME280;21185;50.978;13.720;2024-01-15T03:38:47;96241.94;;;1.30;71.53
34979;BME280;21185;50.978;13.720;2024-01-15T03:43:49;96239.69;;;1.27;71.21
34979;BME280;21185;50.978;13.720;2024-01-15T03:48:51;96252.13;;;1.22;71.23
34979;BME280;21185;50.978;13.720;2024-01-15T03:53:54;96268.72;;;1.18;71.43
34979;BME280;21185;50.978;13.720;2024-01-15T03:58:56;96260.09;;;1.19;71.57
34979;BME280;21185;50.978;13.720;2024-01-15T04:03:58;96275.88;;;1.15;71.76
34979;BME280;21185;50.978;13.720;2024-01-15T04:09:00;96272.84;;;1.11;72.27
34979;BME280;21185;50.978;13.720;2024-01-15T04:14:02;96277.59;;;1.06;72.20
34979;BME280;21185;50.978;13.720;2024-01-15T04:19:04;96271.84;;;1.04;72.60
34979;BME280;21185;50.978;13.720;2024-01-15T04:24:07;96249.47;;;0.98;72.27
34979;BME280;21185;50.978;13.720;2024-01-15T04:29:09;96249.78;;;0.95;72.13
34979;BME280;21185;50.978;13.720;2024-01-15T04:34:11;96240.81;;;0.91;72.17
34979;BME280;21185;50.978;13.720;2024-01-15T04:39:13;96248.47;;;0.91;71.88
34979;BME280;21185;50.978;13.720;2024-01-15T04:44:15;96253.72;;;0.89;71.83
34979;BME280;21185;50.978;13.720;2024-01-15T04:49:18;96251.31;;;0.88;71.45
34979;BME280;21185;50.978;13.720;2024-01-15T04:54:20;96251.97;;;0.90;71.49
34979;BME280;21185;50.978;13.720;2024-01-15T04:59:23;96253.88;;;0.88;71.44
34979;BME280;21185;50.978;13.720;2024-01-15T05:04:25;96262.94;;;0.82;71.21
34979;BME280;21185;50.978;13.720;2024-01-15T05:09:27;96253.03;;;0.79;71.15
34979;BME280;21185;50.978;13.720;2024-01-15T05:14:34;96249.53;;;0.80;71.32
34979;BME280;21185;50.978;13.720;2024-01-15T05:19:36;96268.84;;;0.83;70.98
34979;BME280;21185;50.978;13.720;2024-01-15T05:24:39;96262.44;;;0.79;70.81
34979;BME280;21185;50.978;13.720;2024-01-15T05:29:41;96259.38;;;0.75;71.21
34979;BME280;21185;50.978;13.720;2024-01-15T05:34:43;96250.13;;;0.74;71.07
34979;BME280;21185;50.978;13.720;2024-01-15T05:39:46;96259.03;;;0.70;70.40
34979;BME280;21185;50.978;13.720;2024-01-15T05:44:48;96259.84;;;0.71;70.56
34979;BME280;21185;50.978;13.720;2024-01-15T05:49:51;96249.78;;;0.69;70.33
34979;BME280;21185;50.978;13.720;2024-01-15T05:54:53;96250.88;;;0.67;70.21
34979;BME280;21185;50.978;13.720;2024-01-15T05:59:55;96259.50;;;0.65;69.93
34979;BME280;21185;50.978;13.720;2024-01-15T06:04:57;96261.38;;;0.63;69.87
34979;BME280;21185;50.978;13.720;2024-01-15T06:09:59;96242.72;;;0.63;69.84
34979;BME280;21185;50.978;13.720;2024-01-15T06:15:02;96250.53;;;0.61;69.79
34979;BME280;21185;50.978;13.720;2024-01-15T06:20:05;96252.94;;;0.63;69.42
34979;BME280;21185;50.978;13.720;2024-01-15T06:25:08;96251.19;;;0.63;69.29
34979;BME280;21185;50.978;13.720;2024-01-15T06:30:11;96254.38;;;0.65;69.50
34979;BME280;21185;50.978;13.720;2024-01-15T06:35:14;96234.91;;;0.64;69.14
34979;BME280;21185;50.978;13.720;2024-01-15T06:40:16;96246.88;;;0.64;68.93
34979;BME280;21185;50.978;13.720;2024-01-15T06:45:18;96244.31;;;0.64;69.21
34979;BME280;21185;50.978;13.720;2024-01-15T06:50:20;96241.63;;;0.65;68.94
34979;BME280;21185;50.978;13.720;2024-01-15T06:55:24;96255.03;;;0.68;69.31
34979;BME280;21185;50.978;13.720;2024-01-15T07:00:27;96254.09;;;0.69;68.92
34979;BME280;21185;50.978;13.720;2024-01-15T07:05:29;96257.28;;;0.71;68.79
34979;BME280;21185;50.978;13.720;2024-01-15T07:10:32;96258.25;;;0.70;68.76
34979;BME280;21185;50.978;13.720;2024-01-15T07:15:37;96251.53;;;0.69;68.64
34979;BME280;21185;50.978;13.720;2024-01-15T07:20:40;96256.94;;;0.65;68.51
34979;BME280;21185;50.978;13.720;2024-01-15T07:25:41;96256.13;;;0.65;68.35
34979;BME280;21185;50.978;13.720;2024-01-15T07:30:44;96274.66;;;0.67;68.17
34979;BME280;21185;50.978;13.720;2024-01-15T07:35:47;96283.13;;;0.68;68.23
34979;BME280;21185;50.978;13.720;2024-01-15T07:40:49;96290.03;;;0.75;68.35
34979;BME280;21185;50.978;13.720;2024-01-15T07:45:51;96287.03;;;0.80;68.23
34979;BME280;21185;50.978;13.720;2024-01-15T07:50:53;96295.63;;;0.79;68.43
34979;BME280;21185;50.978;13.720;2024-01-15T07:55:55;96294.97;;;0.77;68.25
34979;BME280;21185;50.978;13.720;2024-01-15T08:00:57;96283.47;;;0.73;68.22
34979;BME280;21185;50.978;13.720;2024-01-15T08:06:00;96284.41;;;0.72;68.36
34979;BME280;21185;50.978;13.720;2024-01-15T08:11:02;96282.97;;;0.69;68.39
34979;BME280;21185;50.978;13.720;2024-01-15T08:16:05;96279.47;;;0.70;68.43
34979;BME280;21185;50.978;13.720;2024-01-15T08:21:08;96275.16;;;0.71;68.17
34979;BME280;21185;50.978;13.720;2024-01-15T08:26:10;96298.13;;;0.71;68.18
34979;BME280;21185;50.978;13.720;2024-01-15T08:31:14;96296.53;;;0.70;68.37
34979;BME280;21185;50.978;13.720;2024-01-15T08:36:16;96295.88;;;0.68;68.37
34979;BME280;21185;50.978;13.720;2024-01-15T08:41:20;96292.06;;;0.72;68.38
34979;BME280;21185;50.978;13.720;2024-01-15T08:46:26;96297.97;;;0.72;68.31
34979;BME280;21185;50.978;13.720;2024-01-15T08:51:28;96297.97;;;0.72;67.80
34979;BME280;21185;50.978;13.720;2024-01-15T08:56:30;96295.94;;;0.76;67.76
34979;BME280;21185;50.978;13.720;2024-01-15T09:01:32;96301.25;;;0.82;67.47
34979;BME280;21185;50.978;13.720;2024-01-15T09:06:34;96299.19;;;0.86;67.24
34979;BME280;21185;50.978;13.720;2024-01-15T09:11:36;96308.16;;;0.90;67.37
34979;BME280;21185;50.978;13.720;2024-01-15T09:16:39;96292.69;;;0.91;66.96
34979;BME280;21185;50.978;13.720;2024-01-15T09:21:41;96287.78;;;0.98;66.80
34979;BME280;21185;50.978;13.720;2024-01-15T09:26:43;96297.09;;;1.07;66.64
34979;BME280;21185;50.978;13.720;2024-01-15T09:31:45;96309.09;;;1.15;66.02
34979;BME280;21185;50.978;13.720;2024-01-15T09:36:48;96293.97;;;1.21;65.68
34979;BME280;21185;50.978;13.720;2024-01-15T09:41:51;96309.78;;;1.25;65.67
34979;BME280;21185;50.978;13.720;2024-01-15T09:46:53;96300.56;;;1.32;65.33
34979;BME280;21185;50.978;13.720;2024-01-15T09:51:58;96296.28;;;1.41;65.12
34979;BME280;21185;50.978;13.720;2024-01-15T09:57:12;96307.34;;;1.49;64.81
34979;BME280;21185;50.978;13.720;2024-01-15T10:02:14;96305.63;;;1.58;64.27
34979;BME280;21185;50.978;13.720;2024-01-15T10:07:20;96299.25;;;1.62;64.24
34979;BME280;21185;50.978;13.720;2024-01-15T10:12:24;96294.44;;;1.59;63.90
34979;BME280;21185;50.978;13.720;2024-01-15T10:17:30;96293.50;;;1.60;64.08
34979;BME280;21185;50.978;13.720;2024-01-15T10:22:33;96300.88;;;1.71;63.85
34979;BME280;21185;50.978;13.720;2024-01-15T10:27:35;96289.41;;;1.83;64.03
34979;BME280;21185;50.978;13.720;2024-01-15T10:32:37;96290.19;;;1.84;63.33
34979;BME280;21185;50.978;13.720;2024-01-15T10:37:41;96282.69;;;1.82;63.35
34979;BME280;21185;50.978;13.720;2024-01-15T10:42:43;96276.13;;;1.80;62.96
34979;BME280;21185;50.978;13.720;2024-01-15T10:47:46;96289.41;;;1.83;62.84
34979;BME280;21185;50.978;13.720;2024-01-15T10:52:48;96284.94;;;1.85;62.52
34979;BME280;21185;50.978;13.720;2024-01-15T10:57:52;96275.66;;;1.84;62.53
34979;BME280;21185;50.978;13.720;2024-01-15T11:02:55;96278.22;;;1.84;62.82
34979;BME280;21185;50.978;13.720;2024-01-15T11:07:59;96269.59;;;1.85;62.59
34979;BME280;21185;50.978;13.720;2024-01-15T11:13:02;96266.53;;;1.82;62.49
34979;BME280;21185;50.978;13.720;2024-01-15T11:18:04;96275.47;;;1.78;62.21
34979;BME280;21185;50.978;13.720;2024-01-15T11:23:08;96273.09;;;1.76;62.15
34979;BME280;21185;50.978;13.720;2024-01-15T11:28:46;96265.72;;;1.73;62.02
34979;BME280;21185;50.978;13.720;2024-01-15T11:33:50;96259.81;;;1.81;62.33
34979;BME280;21185;50.978;13.720;2024-01-15T11:38:52;96258.06;;;1.81;62.31
34979;BME280;21185;50.978;13.720;2024-01-15T11:43:54;96254.56;;;1.82;62.52
34979;BME280;21185;50.978;13.720;2024-01-15T11:49:03;96258.56;;;1.85;62.83
34979;BME280;21185;50.978;13.720;2024-01-15T11:54:10;96230.28;;;1.86;62.78
34979;BME280;21185;50.978;13.720;2024-01-15T11:59:14;96236.97;;;1.87;62.88
34979;BME280;21185;50.978;13.720;2024-01-15T12:04:16;96229.78;;;1.91;62.88
34979;BME280;21185;50.978;13.720;2024-01-15T12:09:20;96236.34;;;1.93;62.89
34979;BME280;21185;50.978;13.720;2024-01-15T12:14:24;96226.59;;;1.97;63.08
34979;BME280;21185;50.978;13.720;2024-01-15T12:19:26;96238.28;;;2.00;62.83
34979;BME280;21185;50.978;13.720;2024-01-15T12:24:28;96231.41;;;2.00;63.21
34979;BME280;21185;50.978;13.720;2024-01-15T12:29:30;96239.88;;;2.01;63.56
34979;BME280;21185;50.978;13.720;2024-01-15T12:34:32;96241.00;;;1.98;64.10
34979;BME280;21185;50.978;13.720;2024-01-15T12:39:35;96239.88;;;1.92;64.41
34979;BME280;21185;50.978;13.720;2024-01-15T12:44:39;96240.34;;;1.88;65.11
34979;BME280;21185;50.978;13.720;2024-01-15T12:49:41;96238.91;;;1.85;65.64
34979;BME280;21185;50.978;13.720;2024-01-15T12:54:43;96233.78;;;1.77;67.24
34979;BME280;21185;50.978;13.720;2024-01-15T12:59:46;96235.84;;;1.74;68.35
34979;BME280;21185;50.978;13.720;2024-01-15T13:04:48;96239.81;;;1.68;69.46
34979;BME280;21185;50.978;13.720;2024-01-15T13:09:51;96236.59;;;1.58;70.79
34979;BME280;21185;50.978;13.720;2024-01-15T13:14:57;96231.78;;;1.47;71.86
34979;BME280;21185;50.978;13.720;2024-01-15T13:20:00;96235.25;;;1.38;72.89
34979;BME280;21185;50.978;13.720;2024-01-15T13:25:02;96237.34;;;1.34;73.46
34979;BME280;21185;50.978;13.720;2024-01-15T13:30:06;96241.16;;;1.30;73.70
34979;BME280;21185;50.978;13.720;2024-01-15T13:35:10;96248.00;;;1.29;74.16
34979;BME280;21185;50.978;13.720;2024-01-15T13:40:15;96247.38;;;1.27;74.62
34979;BME280;21185;50.978;13.720;2024-01-15T13:45:21;96249.91;;;1.27;74.88
34979;BME280;21185;50.978;13.720;2024-01-15T13:50:26;96261.25;;;1.25;75.46
34979;BME280;21185;50.978;13.720;2024-01-15T13:55:27;96264.91;;;1.22;75.61
34979;BME280;21185;50.978;13.720;2024-01-15T14:00:34;96275.44;;;1.19;75.84
34979;BME280;21185;50.978;13.720;2024-01-15T14:05:36;96276.69;;;1.15;75.93
34979;BME280;21185;50.978;13.720;2024-01-15T14:10:38;96292.47;;;1.11;76.32
34979;BME280;21185;50.978;13.720;2024-01-15T14:15:40;96288.31;;;1.10;76.42
34979;BME280;21185;50.978;13.720;2024-01-15T14:20:42;96293.91;;;1.13;76.25
34979;BME280;21185;50.978;13.720;2024-01-15T14:25:45;96296.78;;;1.10;76.21
34979;BME280;21185;50.978;13.720;2024-01-15T14:30:47;96301.38;;;1.07;76.57
34979;BME280;21185;50.978;13.720;2024-01-15T14:35:49;96311.41;;;1.00;76.73
34979;BME280;21185;50.978;13.720;2024-01-15T14:40:51;96318.06;;;0.93;77.73
34979;BME280;21185;50.978;13.720;2024-01-15T14:45:53;96315.66;;;0.91;78.29
34979;BME280;21185;50.978;13.720;2024-01-15T14:50:55;96337.19;;;0.89;78.71
34979;BME280;21185;50.978;13.720;2024-01-15T14:55:57;96333.34;;;0.85;78.69
34979;BME280;21185;50.978;13.720;2024-01-15T15:00:59;96323.41;;;0.82;79.45
34979;BME280;21185;50.978;13.720;2024-01-15T15:06:01;96322.13;;;0.78;79.91
34979;BME280;21185;50.978;13.720;2024-01-15T15:11:04;96315.41;;;0.77;79.78
34979;BME280;21185;50.978;13.720;2024-01-15T15:16:06;96313.81;;;0.76;79.92
34979;BME280;21185;50.978;13.720;2024-01-15T15:21:10;96319.84;;;0.75;79.70
34979;BME280;21185;50.978;13.720;2024-01-15T15:26:14;96324.00;;;0.76;79.65
34979;BME280;21185;50.978;13.720;2024-01-15T15:31:16;96337.56;;;0.76;79.47
34979;BME280;21185;50.978;13.720;2024-01-15T15:36:19;96344.13;;;0.79;79.27
34979;BME280;21185;50.978;13.720;2024-01-15T15:41:22;96347.50;;;0.79;79.03
34979;BME280;21185;50.978;13.720;2024-01-15T15:46:24;96355.38;;;0.86;78.87
34979;BME280;21185;50.978;13.720;2024-01-15T15:51:26;96350.75;;;0.89;78.63
34979;BME280;21185;50.978;13.720;2024-01-15T15:56:28;96361.63;;;0.91;78.65
34979;BME280;21185;50.978;13.720;2024-01-15T16:01:30;96360.69;;;0.92;78.41
34979;BME280;21185;50.978;13.720;2024-01-15T16:06:33;96361.78;;;0.90;78.09
34979;BME280;21185;50.978;13.720;2024-01-15T16:11:35;96373.38;;;0.84;78.41
34979;BME280;21185;50.978;13.720;2024-01-15T16:16:37;96379.59;;;0.82;78.51
34979;BME280;21185;50.978;13.720;2024-01-15T16:21:59;96381.34;;;0.81;78.73
34979;BME280;21185;50.978;13.720;2024-01-15T16:27:21;96373.69;;;0.81;78.62
34979;BME280;21185;50.978;13.720;2024-01-15T16:32:23;96391.69;;;0.80;78.68
34979;BME280;21185;50.978;13.720;2024-01-15T16:37:25;96398.41;;;0.81;78.29
34979;BME280;21185;50.978;13.720;2024-01-15T16:42:27;96402.56;;;0.82;78.13
34979;BME280;21185;50.978;13.720;2024-01-15T16:47:29;96406.44;;;0.86;78.07
34979;BME280;21185;50.978;13.720;2024-01-15T16:52:31;96406.94;;;0.89;77.67
34979;BME280;21185;50.978;13.720;2024-01-15T16:57:33;96423.06;;;0.90;77.87
34979;BME280;21185;50.978;13.720;2024-01-15T17:02:35;96420.50;;;0.90;78.10
34979;BME280;21185;50.978;13.720;2024-01-15T17:07:37;96417.16;;;0.89;78.03
34979;BME280;21185;50.978;13.720;2024-01-15T17:12:39;96418.75;;;0.90;78.26
34979;BME280;21185;50.978;13.720;2024-01-15T17:17:41;96417.81;;;0.91;78.38
34979;BME280;21185;50.978;13.720;2024-01-15T17:22:44;96408.38;;;0.92;78.05
34979;BME280;21185;50.978;13.720;2024-01-15T17:27:46;96419.56;;;0.91;77.89
34979;BME280;21185;50.978;13.720;2024-01-15T17:32:48;96424.66;;;0.91;77.78
34979;BME280;21185;50.978;13.720;2024-01-15T17:37:50;96419.56;;;0.91;77.36
34979;BME280;21185;50.978;13.720;2024-01-15T17:42:52;96434.22;;;0.89;77.34
34979;BME280;21185;50.978;13.720;2024-01-15T17:47:54;96435.81;;;0.90;77.05
34979;BME280;21185;50.978;13.720;2024-01-15T17:52:57;96423.06;;;0.90;77.25
34979;BME280;21185;50.978;13.720;2024-01-15T17:57:59;96437.44;;;0.91;77.76
34979;BME280;21185;50.978;13.720;2024-01-15T18:03:01;96440.94;;;0.90;78.02
34979;BME280;21185;50.978;13.720;2024-01-15T18:08:04;96446.03;;;0.90;78.07
34979;BME280;21185;50.978;13.720;2024-01-15T18:13:06;96448.44;;;0.91;78.17
34979;BME280;21185;50.978;13.720;2024-01-15T18:18:11;96448.59;;;0.90;78.26
34979;BME280;21185;50.978;13.720;2024-01-15T18:23:13;96465.81;;;0.88;78.38
34979;BME280;21185;50.978;13.720;2024-01-15T18:28:16;96467.56;;;0.87;78.50
34979;BME280;21185;50.978;13.720;2024-01-15T18:33:18;96464.22;;;0.87;78.48
34979;BME280;21185;50.978;13.720;2024-01-15T18:38:28;96470.41;;;0.84;78.80
34979;BME280;21185;50.978;13.720;2024-01-15T18:43:30;96473.91;;;0.83;78.92
34979;BME280;21185;50.978;13.720;2024-01-15T18:48:35;96481.41;;;0.85;78.92
34979;BME280;21185;50.978;13.720;2024-01-15T18:53:38;96480.47;;;0.86;79.12
34979;BME280;21185;50.978;13.720;2024-01-15T18:58:41;96477.78;;;0.87;79.20
34979;BME280;21185;50.978;13.720;2024-01-15T19:03:45;96476.81;;;0.88;79.57
34979;BME280;21185;50.978;13.720;2024-01-15T19:08:48;96477.13;;;0.85;79.97
34979;BME280;21185;50.978;13.720;2024-01-15T19:13:50;96489.22;;;0.83;79.93
34979;BME280;21185;50.978;13.720;2024-01-15T19:18:55;96488.41;;;0.83;80.13
34979;BME280;21185;50.978;13.720;2024-01-15T19:23:57;96494.84;;;0.87;80.09
34979;BME280;21185;50.978;13.720;2024-01-15T19:28:59;96500.91;;;0.86;80.25
34979;BME280;21185;50.978;13.720;2024-01-15T19:34:01;96506.97;;;0.85;80.35
34979;BME280;21185;50.978;13.720;2024-01-15T19:39:03;96496.75;;;0.85;80.43
34979;BME280;21185;50.978;13.720;2024-01-15T19:44:05;96498.63;;;0.83;80.59
34979;BME280;21185;50.978;13.720;2024-01-15T19:49:08;96498.50;;;0.84;80.63
34979;BME280;21185;50.978;13.720;2024-01-15T19:54:13;96504.84;;;0.80;81.04
34979;BME280;21185;50.978;13.720;2024-01-15T19:59:16;96509.44;;;0.77;81.17
34979;BME280;21185;50.978;13.720;2024-01-15T20:04:19;96517.38;;;0.74;81.24
34979;BME280;21185;50.978;13.720;2024-01-15T20:09:21;96526.34;;;0.78;81.16
34979;BME280;21185;50.978;13.720;2024-01-15T20:14:25;96527.00;;;0.80;81.00
34979;BME280;21185;50.978;13.720;2024-01-15T20:19:29;96538.97;;;0.79;81.14
34979;BME280;21185;50.978;13.720;2024-01-15T20:24:31;96541.66;;;0.78;81.32
34979;BME280;21185;50.978;13.720;2024-01-15T20:29:33;96567.19;;;0.78;81.44
34979;BME280;21185;50.978;13.720;2024-01-15T20:34:35;96560.78;;;0.74;82.20
34979;BME280;21185;50.978;13.720;2024-01-15T20:39:37;96562.94;;;0.69;82.98
34979;BME280;21185;50.978;13.720;2024-01-15T20:44:39;96572.63;;;0.65;83.52
34979;BME280;21185;50.978;13.720;2024-01-15T20:49:42;96578.56;;;0.65;83.64
34979;BME280;21185;50.978;13.720;2024-01-15T20:54:44;96580.16;;;0.67;83.95
34979;BME280;21185;50.978;13.720;2024-01-15T20:59:46;96598.53;;;0.70;84.17
34979;BME280;21185;50.978;13.720;2024-01-15T21:04:52;96591.16;;;0.67;84.14
34979;BME280;21185;50.978;13.720;2024-01-15T21:09:54;96591.16;;;0.67;84.52
34979;BME280;21185;50.978;13.720;2024-01-15T21:14:56;96596.13;;;0.69;84.45
34979;BME280;21185;50.978;13.720;2024-01-15T21:19:58;96599.63;;;0.68;85.32
34979;BME280;21185;50.978;13.720;2024-01-15T21:25:02;96607.28;;;0.68;86.19
34979;BME280;21185;50.978;13.720;2024-01-15T21:30:07;96623.13;;;0.71;86.60
34979;BME280;21185;50.978;13.720;2024-01-15T21:35:13;96633.88;;;0.75;86.83
34979;BME280;21185;50.978;13.720;2024-01-15T21:40:16;96638.81;;;0.76;87.41
34979;BME280;21185;50.978;13.720;2024-01-15T21:45:18;96656.19;;;0.73;87.36
34979;BME280;21185;50.978;13.720;2024-01-15T21:50:20;96653.91;;;0.70;87.63
34979;BME280;21185;50.978;13.720;2024-01-15T21:55:22;96664.25;;;0.68;88.13
34979;BME280;21185;50.978;13.720;2024-01-15T22:00:24;96666.16;;;0.66;88.28
34979;BME280;21185;50.978;13.720;2024-01-15T22:05:26;96672.06;;;0.67;88.37
34979;BME280;21185;50.978;13.720;2024-01-15T22:10:28;96676.75;;;0.71;88.57
34979;BME280;21185;50.978;13.720;2024-01-15T22:15:30;96695.28;;;0.73;88.40
34979;BME280;21185;50.978;13.720;2024-01-15T22:20:32;96696.75;;;0.76;88.49
34979;BME280;21185;50.978;13.720;2024-01-15T22:25:35;96704.25;;;0.77;88.60
34979;BME280;21185;50.978;13.720;2024-01-15T22:30:37;96707.75;;;0.76;88.33
34979;BME280;21185;50.978;13.720;2024-01-15T22:35:39;96705.06;;;0.78;88.45
34979;BME280;21185;50.978;13.720;2024-01-15T22:40:41;96706.00;;;0.77;88.40
34979;BME280;21185;50.978;13.720;2024-01-15T22:45:43;96703.47;;;0.77;88.25
34979;BME280;21185;50.978;13.720;2024-01-15T22:50:45;96719.84;;;0.74;88.58
34979;BME280;21185;50.978;13.720;2024-01-15T22:55:48;96720.13;;;0.71;88.13
34979;BME280;21185;50.978;13.720;2024-01-15T23:00:50;96729.16;;;0.65;88.33
34979;BME280;21185;50.978;13.720;2024-01-15T23:05:51;96741.25;;;0.63;88.31
34979;BME280;21185;50.978;13.720;2024-01-15T23:10:54;96733.06;;;0.60;88.22
34979;BME280;21185;50.978;13.720;2024-01-15T23:15:56;96732.25;;;0.59;87.86
34979;BME280;21185;50.978;13.720;2024-01-15T23:20:58;96750.13;;;0.59;87.10
34979;BME280;21185;50.978;13.720;2024-01-15T23:26:00;96761.94;;;0.60;86.23
34979;BME280;21185;50.978;13.720;2024-01-15T23:31:02;96768.66;;;0.61;85.40
34979;BME280;21185;50.978;13.720;2024-01-15T23:36:08;96769.59;;;0.60;84.82
34979;BME280;21185;50.978;13.720;2024-01-15T23:41:20;96787.19;;;0.63;84.93
34979;BME280;21185;50.978;13.720;2024-01-15T23:46:23;96795.81;;;0.62;83.89
34979;BME280;21185;50.978;13.720;2024-01-15T23:51:25;96794.84;;;0.63;83.18
34979;BME280;21185;50.978;13.720;2024-01-15T23:56:27;96799.03;;;0.64;82.60
